sensor_id;sensor_type;location;lat;lon;timestamp;pressure;altitude;pressure_sealevel;temperature;humidity
68077;BME280;54866;53.458;14.540;2022-12-17T00:02:01;101252.77;;;-5.20;96.93
68077;BME280;54866;53.458;14.540;2022-12-17T00:04:49;101258.44;;;-5.19;97.15
68077;BME280;54866;53.458;14.540;2022-12-17T00:07:36;101263.23;;;-5.17;97.11
68077;BME280;54866;53.458;14.540;2022-12-17T00:10:37;101268.90;;;-5.18;97.47
68077;BME280;54866;53.458;14.540;2022-12-17T00:13:24;101267.38;;;-5.19;97.08
68077;BME280;54866;53.458;14.540;2022-12-17T00:16:11;101270.81;;;-5.25;96.78
68077;BME280;54866;53.458;14.540;2022-12-17T00:18:59;101270.16;;;-5.31;96.60
68077;BME280;54866;53.458;14.540;2022-12-17T00:21:46;101273.27;;;-5.37;96.50
68077;BME280;54866;53.458;14.540;2022-12-17T00:24:33;101273.79;;;-5.42;96.81
68077;BME280;54866;53.458;14.540;2022-12-17T00:27:20;101274.15;;;-5.46;96.77
68077;BME280;54866;53.458;14.540;2022-12-17T00:30:09;101277.78;;;-5.49;96.83
68077;BME280;54866;53.458;14.540;2022-12-17T00:33:02;101274.34;;;-5.49;97.13
68077;BME280;54866;53.458;14.540;2022-12-17T00:35:52;101280.02;;;-5.48;97.38
68077;BME280;54866;53.458;14.540;2022-12-17T00:38:40;101283.44;;;-5.49;97.55
68077;BME280;54866;53.458;14.540;2022-12-17T00:41:27;101286.19;;;-5.47;97.44
68077;BME280;54866;53.458;14.540;2022-12-17T00:44:14;101292.19;;;-5.45;97.61
68077;BME280;54866;53.458;14.540;2022-12-17T00:47:01;101296.98;;;-5.45;97.29
68077;BME280;54866;53.458;14.540;2022-12-17T00:49:48;101297.00;;;-5.48;97.15
68077;BME280;54866;53.458;14.540;2022-12-17T00:52:36;101300.27;;;-5.52;96.77
68077;BME280;54866;53.458;14.540;2022-12-17T00:55:23;101300.12;;;-5.54;96.51
68077;BME280;54866;53.458;14.540;2022-12-17T00:58:10;101301.66;;;-5.53;96.80
68077;BME280;54866;53.458;14.540;2022-12-17T01:01:09;101300.95;;;-5.50;96.99
68077;BME280;54866;53.458;14.540;2022-12-17T01:03:56;101295.45;;;-5.45;97.04
68077;BME280;54866;53.458;14.540;2022-12-17T01:06:43;101298.34;;;-5.39;97.18
68077;BME280;54866;53.458;14.540;2022-12-17T01:09:30;101302.11;;;-5.34;97.53
68077;BME280;54866;53.458;14.540;2022-12-17T01:12:18;101299.69;;;-5.29;97.37
68077;BME280;54866;53.458;14.540;2022-12-17T01:15:07;101297.27;;;-5.27;97.18
68077;BME280;54866;53.458;14.540;2022-12-17T01:17:54;101306.19;;;-5.24;97.06
68077;BME280;54866;53.458;14.540;2022-12-17T01:20:41;101313.60;;;-5.30;96.40
68077;BME280;54866;53.458;14.540;2022-12-17T01:23:28;101312.90;;;-5.26;96.46
68077;BME280;54866;53.458;14.540;2022-12-17T01:26:15;101310.83;;;-5.24;96.73
68077;BME280;54866;53.458;14.540;2022-12-17T01:29:03;101310.98;;;-5.22;96.39
68077;BME280;54866;53.458;14.540;2022-12-17T01:31:50;101316.15;;;-5.18;96.62
68077;BME280;54866;53.458;14.540;2022-12-17T01:34:37;101319.05;;;-5.15;96.53
68077;BME280;54866;53.458;14.540;2022-12-17T01:37:24;101320.23;;;-5.12;96.48
68077;BME280;54866;53.458;14.540;2022-12-17T01:40:12;101317.00;;;-5.18;96.06
68077;BME280;54866;53.458;14.540;2022-12-17T01:43:10;101322.16;;;-5.18;95.92
68077;BME280;54866;53.458;14.540;2022-12-17T01:45:59;101331.43;;;-5.22;95.79
68077;BME280;54866;53.458;14.540;2022-12-17T01:48:48;101331.10;;;-5.25;95.90
68077;BME280;54866;53.458;14.540;2022-12-17T01:51:37;101336.43;;;-5.28;95.59
68077;BME280;54866;53.458;14.540;2022-12-17T01:54:24;101332.84;;;-5.29;96.04
68077;BME280;54866;53.458;14.540;2022-12-17T01:57:11;101335.08;;;-5.30;96.09
68077;BME280;54866;53.458;14.540;2022-12-17T02:00:03;101344.86;;;-5.31;96.06
68077;BME280;54866;53.458;14.540;2022-12-17T02:02:50;101342.45;;;-5.29;96.47
68077;BME280;54866;53.458;14.540;2022-12-17T02:05:46;101339.69;;;-5.26;96.91
68077;BME280;54866;53.458;14.540;2022-12-17T02:08:43;101337.63;;;-5.26;96.79
68077;BME280;54866;53.458;14.540;2022-12-17T02:11:38;101342.25;;;-5.24;97.01
68077;BME280;54866;53.458;14.540;2022-12-17T02:14:35;101343.63;;;-5.24;96.79
68077;BME280;54866;53.458;14.540;2022-12-17T02:17:38;101345.52;;;-5.25;97.00
68077;BME280;54866;53.458;14.540;2022-12-17T02:20:29;101351.37;;;-5.26;96.99
68077;BME280;54866;53.458;14.540;2022-12-17T02:23:31;101355.50;;;-5.29;96.81
68077;BME280;54866;53.458;14.540;2022-12-17T02:26:26;101352.77;;;-5.30;97.00
68077;BME280;54866;53.458;14.540;2022-12-17T02:29:15;101347.10;;;-5.32;97.18
68077;BME280;54866;53.458;14.540;2022-12-17T02:32:04;101350.89;;;-5.33;97.11
68077;BME280;54866;53.458;14.540;2022-12-17T02:34:52;101350.36;;;-5.33;97.19
68077;BME280;54866;53.458;14.540;2022-12-17T02:37:46;101352.93;;;-5.31;97.31
68077;BME280;54866;53.458;14.540;2022-12-17T02:40:35;101350.21;;;-5.39;96.67
68077;BME280;54866;53.458;14.540;2022-12-17T02:43:23;101355.56;;;-5.52;95.83
68077;BME280;54866;53.458;14.540;2022-12-17T02:46:11;101355.57;;;-5.55;96.48
68077;BME280;54866;53.458;14.540;2022-12-17T02:48:59;101355.39;;;-5.56;96.70
68077;BME280;54866;53.458;14.540;2022-12-17T02:51:46;101354.69;;;-5.57;96.81
68077;BME280;54866;53.458;14.540;2022-12-17T02:54:33;101358.31;;;-5.54;97.28
68077;BME280;54866;53.458;14.540;2022-12-17T02:57:21;101350.25;;;-5.56;97.31
68077;BME280;54866;53.458;14.540;2022-12-17T03:00:17;101355.05;;;-5.54;97.39
68077;BME280;54866;53.458;14.540;2022-12-17T03:03:04;101354.52;;;-5.56;97.46
68077;BME280;54866;53.458;14.540;2022-12-17T03:05:51;101354.52;;;-5.57;97.39
68077;BME280;54866;53.458;14.540;2022-12-17T03:08:39;101356.05;;;-5.57;97.74
68077;BME280;54866;53.458;14.540;2022-12-17T03:11:29;101358.64;;;-5.56;97.48
68077;BME280;54866;53.458;14.540;2022-12-17T03:14:17;101359.34;;;-5.52;97.97
68077;BME280;54866;53.458;14.540;2022-12-17T03:17:04;101364.31;;;-5.51;97.76
68077;BME280;54866;53.458;14.540;2022-12-17T03:19:51;101364.83;;;-5.49;97.93
68077;BME280;54866;53.458;14.540;2022-12-17T03:22:38;101363.80;;;-5.52;97.82
68077;BME280;54866;53.458;14.540;2022-12-17T03:25:25;101371.87;;;-5.56;97.44
68077;BME280;54866;53.458;14.540;2022-12-17T03:28:13;101378.05;;;-5.66;96.91
68077;BME280;54866;53.458;14.540;2022-12-17T03:31:01;101373.77;;;-5.72;96.87
68077;BME280;54866;53.458;14.540;2022-12-17T03:33:48;101366.39;;;-5.68;97.58
68077;BME280;54866;53.458;14.540;2022-12-17T03:36:35;101373.08;;;-5.66;98.19
68077;BME280;54866;53.458;14.540;2022-12-17T03:39:22;101381.83;;;-5.64;98.03
68077;BME280;54866;53.458;14.540;2022-12-17T03:42:09;101388.01;;;-5.62;98.38
68077;BME280;54866;53.458;14.540;2022-12-17T03:44:57;101390.07;;;-5.54;99.14
68077;BME280;54866;53.458;14.540;2022-12-17T03:47:44;101389.39;;;-5.53;98.89
68077;BME280;54866;53.458;14.540;2022-12-17T03:50:31;101394.70;;;-5.59;98.32
68077;BME280;54866;53.458;14.540;2022-12-17T03:53:21;101398.66;;;-5.69;97.73
68077;BME280;54866;53.458;14.540;2022-12-17T03:56:13;101401.40;;;-5.84;97.46
68077;BME280;54866;53.458;14.540;2022-12-17T03:59:00;101402.63;;;-6.00;97.12
68077;BME280;54866;53.458;14.540;2022-12-17T04:01:47;101407.40;;;-6.19;97.24
68077;BME280;54866;53.458;14.540;2022-12-17T04:04:34;101417.64;;;-6.40;97.03
68077;BME280;54866;53.458;14.540;2022-12-17T04:07:22;101424.95;;;-6.58;97.11
68077;BME280;54866;53.458;14.540;2022-12-17T04:10:09;101436.05;;;-6.69;97.24
68077;BME280;54866;53.458;14.540;2022-12-17T04:12:56;101437.90;;;-6.77;97.36
68077;BME280;54866;53.458;14.540;2022-12-17T04:15:43;101444.20;;;-6.83;97.35
68077;BME280;54866;53.458;14.540;2022-12-17T04:18:31;101449.33;;;-6.88;97.82
68077;BME280;54866;53.458;14.540;2022-12-17T04:21:18;101456.16;;;-6.92;98.03
68077;BME280;54866;53.458;14.540;2022-12-17T04:24:06;101458.88;;;-6.94;98.37
68077;BME280;54866;53.458;14.540;2022-12-17T04:26:53;101456.27;;;-6.99;98.53
68077;BME280;54866;53.458;14.540;2022-12-17T04:29:40;101458.99;;;-7.04;98.70
68077;BME280;54866;53.458;14.540;2022-12-17T04:32:42;101461.89;;;-7.08;98.86
68077;BME280;54866;53.458;14.540;2022-12-17T04:35:29;101460.34;;;-7.10;99.15
68077;BME280;54866;53.458;14.540;2022-12-17T04:38:16;101454.49;;;-7.11;98.98
68077;BME280;54866;53.458;14.540;2022-12-17T04:41:03;101458.25;;;-7.11;99.34
68077;BME280;54866;53.458;14.540;2022-12-17T04:43:50;101459.66;;;-7.10;99.13
68077;BME280;54866;53.458;14.540;2022-12-17T04:46:38;101461.38;;;-7.07;99.52
68077;BME280;54866;53.458;14.540;2022-12-17T04:49:25;101455.56;;;-7.05;99.46
68077;BME280;54866;53.458;14.540;2022-12-17T04:52:12;101459.50;;;-7.06;99.25
68077;BME280;54866;53.458;14.540;2022-12-17T04:54:59;101461.91;;;-7.04;99.55
68077;BME280;54866;53.458;14.540;2022-12-17T04:57:47;101458.30;;;-7.04;99.46
68077;BME280;54866;53.458;14.540;2022-12-17T05:00:34;101459.00;;;-7.03;99.69
68077;BME280;54866;53.458;14.540;2022-12-17T05:03:21;101457.13;;;-7.01;99.36
68077;BME280;54866;53.458;14.540;2022-12-17T05:06:09;101460.21;;;-7.00;99.56
68077;BME280;54866;53.458;14.540;2022-12-17T05:08:56;101459.88;;;-6.99;99.40
68077;BME280;54866;53.458;14.540;2022-12-17T05:11:43;101464.84;;;-7.00;99.38
68077;BME280;54866;53.458;14.540;2022-12-17T05:14:30;101465.35;;;-7.00;99.24
68077;BME280;54866;53.458;14.540;2022-12-17T05:17:18;101467.06;;;-7.00;99.71
68077;BME280;54866;53.458;14.540;2022-12-17T05:20:06;101471.34;;;-7.01;99.07
68077;BME280;54866;53.458;14.540;2022-12-17T05:22:53;101473.39;;;-7.02;99.34
68077;BME280;54866;53.458;14.540;2022-12-17T05:25:40;101469.63;;;-7.01;99.55
68077;BME280;54866;53.458;14.540;2022-12-17T05:28:27;101468.59;;;-7.02;99.45
68077;BME280;54866;53.458;14.540;2022-12-17T05:31:14;101468.77;;;-7.03;99.18
68077;BME280;54866;53.458;14.540;2022-12-17T05:34:02;101470.48;;;-7.03;99.54
68077;BME280;54866;53.458;14.540;2022-12-17T05:36:49;101476.65;;;-7.03;99.58
68077;BME280;54866;53.458;14.540;2022-12-17T05:39:36;101479.20;;;-7.03;99.64
68077;BME280;54866;53.458;14.540;2022-12-17T05:42:25;101484.34;;;-7.04;99.29
68077;BME280;54866;53.458;14.540;2022-12-17T05:45:12;101491.70;;;-7.05;99.14
68077;BME280;54866;53.458;14.540;2022-12-17T05:47:59;101498.55;;;-7.06;99.40
68077;BME280;54866;53.458;14.540;2022-12-17T05:50:50;101507.61;;;-7.07;99.33
68077;BME280;54866;53.458;14.540;2022-12-17T05:53:37;101506.08;;;-7.06;99.44
68077;BME280;54866;53.458;14.540;2022-12-17T05:56:25;101512.95;;;-7.04;99.39
68077;BME280;54866;53.458;14.540;2022-12-17T05:59:12;101514.66;;;-7.04;99.59
68077;BME280;54866;53.458;14.540;2022-12-17T06:01:59;101517.06;;;-7.03;99.66
68077;BME280;54866;53.458;14.540;2022-12-17T06:04:46;101517.58;;;-7.03;99.80
68077;BME280;54866;53.458;14.540;2022-12-17T06:07:34;101523.05;;;-7.05;99.55
68077;BME280;54866;53.458;14.540;2022-12-17T06:10:21;101526.45;;;-7.09;99.45
68077;BME280;54866;53.458;14.540;2022-12-17T06:13:08;101533.23;;;-7.14;99.10
68077;BME280;54866;53.458;14.540;2022-12-17T06:15:56;101537.85;;;-7.16;99.60
68077;BME280;54866;53.458;14.540;2022-12-17T06:18:43;101546.73;;;-7.17;99.35
68077;BME280;54866;53.458;14.540;2022-12-17T06:21:30;101550.66;;;-7.19;99.49
68077;BME280;54866;53.458;14.540;2022-12-17T06:24:17;101552.89;;;-7.20;99.66
68077;BME280;54866;53.458;14.540;2022-12-17T06:27:05;101549.61;;;-7.24;99.50
68077;BME280;54866;53.458;14.540;2022-12-17T06:29:52;101557.29;;;-7.27;99.88
68077;BME280;54866;53.458;14.540;2022-12-17T06:32:39;101560.15;;;-7.31;99.79
68077;BME280;54866;53.458;14.540;2022-12-17T06:35:26;101561.84;;;-7.33;99.92
68077;BME280;54866;53.458;14.540;2022-12-17T06:38:14;101561.14;;;-7.36;100.00
68077;BME280;54866;53.458;14.540;2022-12-17T06:41:02;101566.09;;;-7.38;100.00
68077;BME280;54866;53.458;14.540;2022-12-17T06:43:49;101569.83;;;-7.41;99.70
68077;BME280;54866;53.458;14.540;2022-12-17T06:46:37;101570.69;;;-7.41;99.91
68077;BME280;54866;53.458;14.540;2022-12-17T06:49:24;101576.84;;;-7.41;99.90
68077;BME280;54866;53.458;14.540;2022-12-17T06:52:11;101575.98;;;-7.42;100.00
68077;BME280;54866;53.458;14.540;2022-12-17T06:54:58;101578.70;;;-7.44;100.00
68077;BME280;54866;53.458;14.540;2022-12-17T06:57:45;101583.13;;;-7.45;100.00
68077;BME280;54866;53.458;14.540;2022-12-17T07:00:33;101589.42;;;-7.48;100.00
68077;BME280;54866;53.458;14.540;2022-12-17T07:03:19;101594.70;;;-7.51;100.00
68077;BME280;54866;53.458;14.540;2022-12-17T07:06:06;101601.71;;;-7.52;100.00
68077;BME280;54866;53.458;14.540;2022-12-17T07:08:53;101604.09;;;-7.54;100.00
68077;BME280;54866;53.458;14.540;2022-12-17T07:11:41;101606.64;;;-7.56;100.00
68077;BME280;54866;53.458;14.540;2022-12-17T07:14:28;101605.96;;;-7.55;100.00
68077;BME280;54866;53.458;14.540;2022-12-17T07:17:16;101616.08;;;-7.54;100.00
68077;BME280;54866;53.458;14.540;2022-12-17T07:20:04;101618.98;;;-7.53;100.00
68077;BME280;54866;53.458;14.540;2022-12-17T07:22:55;101621.91;;;-7.51;100.00
68077;BME280;54866;53.458;14.540;2022-12-17T07:25:43;101629.29;;;-7.50;100.00
68077;BME280;54866;53.458;14.540;2022-12-17T07:28:30;101635.02;;;-7.45;100.00
68077;BME280;54866;53.458;14.540;2022-12-17T07:31:17;101641.50;;;-7.45;100.00
68077;BME280;54866;53.458;14.540;2022-12-17T07:34:05;101647.34;;;-7.44;99.99
68077;BME280;54866;53.458;14.540;2022-12-17T07:36:52;101646.30;;;-7.45;100.00
68077;BME280;54866;53.458;14.540;2022-12-17T07:39:39;101652.49;;;-7.41;99.92
68077;BME280;54866;53.458;14.540;2022-12-17T07:42:26;101656.79;;;-7.40;99.92
68077;BME280;54866;53.458;14.540;2022-12-17T07:45:14;101657.34;;;-7.36;99.82
68077;BME280;54866;53.458;14.540;2022-12-17T07:48:01;101662.17;;;-7.31;99.79
68077;BME280;54866;53.458;14.540;2022-12-17T07:50:50;101658.50;;;-7.24;99.71
68077;BME280;54866;53.458;14.540;2022-12-17T07:53:38;101658.67;;;-7.23;99.16
68077;BME280;54866;53.458;14.540;2022-12-17T07:56:25;101657.81;;;-7.24;99.23
68077;BME280;54866;53.458;14.540;2022-12-17T07:59:15;101663.98;;;-7.23;98.93
68077;BME280;54866;53.458;14.540;2022-12-17T08:02:02;101662.60;;;-7.24;98.86
68077;BME280;54866;53.458;14.540;2022-12-17T08:04:49;101666.95;;;-7.16;98.79
68077;BME280;54866;53.458;14.540;2022-12-17T08:07:36;101665.38;;;-7.02;98.63
68077;BME280;54866;53.458;14.540;2022-12-17T08:10:23;101665.18;;;-6.65;98.89
68077;BME280;54866;53.458;14.540;2022-12-17T08:13:11;101667.81;;;-6.04;98.72
68077;BME280;54866;53.458;14.540;2022-12-17T08:16:09;101674.94;;;-5.40;98.47
68077;BME280;54866;53.458;14.540;2022-12-17T08:18:56;101675.52;;;-5.16;96.44
68077;BME280;54866;53.458;14.540;2022-12-17T08:21:43;101679.98;;;-5.20;95.20
68077;BME280;54866;53.458;14.540;2022-12-17T08:24:30;101682.70;;;-5.22;94.75
68077;BME280;54866;53.458;14.540;2022-12-17T08:27:18;101681.14;;;-5.23;94.81
68077;BME280;54866;53.458;14.540;2022-12-17T08:30:06;101687.33;;;-5.30;95.00
68077;BME280;54866;53.458;14.540;2022-12-17T08:33:05;101688.81;;;-5.46;94.39
68077;BME280;54866;53.458;14.540;2022-12-17T08:35:54;101694.92;;;-5.65;94.33
68077;BME280;54866;53.458;14.540;2022-12-17T08:38:42;101705.16;;;-5.77;94.36
68077;BME280;54866;53.458;14.540;2022-12-17T08:41:29;101703.92;;;-5.88;94.36
68077;BME280;54866;53.458;14.540;2022-12-17T08:44:16;101700.14;;;-5.92;94.91
68077;BME280;54866;53.458;14.540;2022-12-17T08:47:03;101699.64;;;-5.86;95.36
68077;BME280;54866;53.458;14.540;2022-12-17T08:49:50;101706.02;;;-5.78;95.13
68077;BME280;54866;53.458;14.540;2022-12-17T08:52:37;101706.71;;;-5.75;95.28
68077;BME280;54866;53.458;14.540;2022-12-17T08:55:25;101709.60;;;-5.82;94.39
68077;BME280;54866;53.458;14.540;2022-12-17T08:58:12;101715.77;;;-5.85;94.60
68077;BME280;54866;53.458;14.540;2022-12-17T09:01:00;101723.66;;;-5.88;94.80
68077;BME280;54866;53.458;14.540;2022-12-17T09:03:56;101726.91;;;-5.89;95.00
68077;BME280;54866;53.458;14.540;2022-12-17T09:06:43;101732.00;;;-6.02;94.71
68077;BME280;54866;53.458;14.540;2022-12-17T09:09:30;101739.01;;;-6.06;94.70
68077;BME280;54866;53.458;14.540;2022-12-17T09:12:17;101738.69;;;-6.03;94.91
68077;BME280;54866;53.458;14.540;2022-12-17T09:15:05;101744.17;;;-6.03;94.71
68077;BME280;54866;53.458;14.540;2022-12-17T09:17:53;101744.38;;;-5.98;94.99
68077;BME280;54866;53.458;14.540;2022-12-17T09:20:55;101748.73;;;-5.84;95.15
68077;BME280;54866;53.458;14.540;2022-12-17T09:23:42;101752.38;;;-5.75;95.12
68077;BME280;54866;53.458;14.540;2022-12-17T09:26:29;101749.17;;;-5.64;95.10
68077;BME280;54866;53.458;14.540;2022-12-17T09:29:16;101749.34;;;-5.64;94.80
68077;BME280;54866;53.458;14.540;2022-12-17T09:32:04;101751.74;;;-5.65;94.88
68077;BME280;54866;53.458;14.540;2022-12-17T09:34:51;101760.33;;;-5.66;94.40
68077;BME280;54866;53.458;14.540;2022-12-17T09:37:38;101758.75;;;-5.70;94.48
68077;BME280;54866;53.458;14.540;2022-12-17T09:40:25;101753.38;;;-5.80;94.42
68077;BME280;54866;53.458;14.540;2022-12-17T09:43:20;101744.10;;;-5.80;94.61
68077;BME280;54866;53.458;14.540;2022-12-17T09:46:16;101746.69;;;-5.77;94.84
68077;BME280;54866;53.458;14.540;2022-12-17T09:49:14;101748.30;;;-5.67;95.22
68077;BME280;54866;53.458;14.540;2022-12-17T09:52:06;101750.88;;;-5.67;95.22
68077;BME280;54866;53.458;14.540;2022-12-17T09:55:01;101754.67;;;-5.61;95.30
68077;BME280;54866;53.458;14.540;2022-12-17T09:57:49;101753.45;;;-5.66;95.16
68077;BME280;54866;53.458;14.540;2022-12-17T10:00:36;101747.09;;;-5.71;95.32
68077;BME280;54866;53.458;14.540;2022-12-17T10:03:23;101744.86;;;-5.69;95.48
68077;BME280;54866;53.458;14.540;2022-12-17T10:06:12;101749.70;;;-5.63;96.14
68077;BME280;54866;53.458;14.540;2022-12-17T10:09:08;101752.63;;;-5.57;96.10
68077;BME280;54866;53.458;14.540;2022-12-17T10:11:58;101753.30;;;-5.62;96.02
68077;BME280;54866;53.458;14.540;2022-12-17T10:14:45;101760.14;;;-5.69;95.77
68077;BME280;54866;53.458;14.540;2022-12-17T10:17:32;101762.48;;;-5.79;95.65
68077;BME280;54866;53.458;14.540;2022-12-17T10:20:22;101761.58;;;-5.87;95.27
68077;BME280;54866;53.458;14.540;2022-12-17T10:23:20;101763.77;;;-5.97;95.55
68077;BME280;54866;53.458;14.540;2022-12-17T10:26:07;101763.69;;;-6.08;95.13
68077;BME280;54866;53.458;14.540;2022-12-17T10:29:03;101763.29;;;-6.16;95.50
68077;BME280;54866;53.458;14.540;2022-12-17T10:31:51;101759.85;;;-6.18;95.57
68077;BME280;54866;53.458;14.540;2022-12-17T10:34:45;101760.49;;;-6.22;95.41
68077;BME280;54866;53.458;14.540;2022-12-17T10:37:34;101759.77;;;-6.25;95.24
68077;BME280;54866;53.458;14.540;2022-12-17T10:40:24;101762.24;;;-6.19;95.72
68077;BME280;54866;53.458;14.540;2022-12-17T10:43:29;101771.38;;;-6.12;95.88
68077;BME280;54866;53.458;14.540;2022-12-17T10:46:26;101772.25;;;-6.09;95.85
68077;BME280;54866;53.458;14.540;2022-12-17T10:49:18;101771.61;;;-6.05;95.88
68077;BME280;54866;53.458;14.540;2022-12-17T10:52:13;101768.84;;;-6.07;95.59
68077;BME280;54866;53.458;14.540;2022-12-17T10:55:16;101770.41;;;-6.05;95.70
68077;BME280;54866;53.458;14.540;2022-12-17T10:58:04;101769.27;;;-5.96;95.98
68077;BME280;54866;53.458;14.540;2022-12-17T11:01:01;101775.84;;;-5.83;95.97
68077;BME280;54866;53.458;14.540;2022-12-17T11:03:52;101776.73;;;-5.76;95.74
68077;BME280;54866;53.458;14.540;2022-12-17T11:06:42;101773.33;;;-5.72;95.63
68077;BME280;54866;53.458;14.540;2022-12-17T11:09:38;101774.89;;;-5.71;95.42
68077;BME280;54866;53.458;14.540;2022-12-17T11:12:30;101776.28;;;-5.68;95.64
68077;BME280;54866;53.458;14.540;2022-12-17T11:15:28;101780.75;;;-5.66;95.82
68077;BME280;54866;53.458;14.540;2022-12-17T11:18:19;101779.69;;;-5.72;95.66
68077;BME280;54866;53.458;14.540;2022-12-17T11:21:12;101784.44;;;-5.79;95.36
68077;BME280;54866;53.458;14.540;2022-12-17T11:24:02;101785.59;;;-5.90;95.23
68077;BME280;54866;53.458;14.540;2022-12-17T11:26:51;101788.69;;;-5.89;95.68
68077;BME280;54866;53.458;14.540;2022-12-17T11:29:39;101792.66;;;-5.84;95.73
68077;BME280;54866;53.458;14.540;2022-12-17T11:32:57;101791.81;;;-5.81;95.89
68077;BME280;54866;53.458;14.540;2022-12-17T11:35:57;101789.04;;;-5.88;95.74
68077;BME280;54866;53.458;14.540;2022-12-17T11:38:49;101790.38;;;-5.93;95.58
68077;BME280;54866;53.458;14.540;2022-12-17T11:41:47;101785.77;;;-5.88;95.79
68077;BME280;54866;53.458;14.540;2022-12-17T11:44:48;101794.18;;;-5.88;95.86
68077;BME280;54866;53.458;14.540;2022-12-17T11:47:41;101796.02;;;-5.96;95.66
68077;BME280;54866;53.458;14.540;2022-12-17T11:50:37;101801.66;;;-6.00;95.94
68077;BME280;54866;53.458;14.540;2022-12-17T11:53:40;101807.68;;;-5.98;96.31
68077;BME280;54866;53.458;14.540;2022-12-17T11:56:34;101806.86;;;-5.92;96.97
68077;BME280;54866;53.458;14.540;2022-12-17T11:59:28;101809.79;;;-5.90;96.95
68077;BME280;54866;53.458;14.540;2022-12-17T12:02:34;101813.91;;;-5.88;96.98
68077;BME280;54866;53.458;14.540;2022-12-17T12:05:32;101815.31;;;-5.84;96.85
68077;BME280;54866;53.458;14.540;2022-12-17T12:08:25;101815.83;;;-5.84;96.80
68077;BME280;54866;53.458;14.540;2022-12-17T12:11:21;101812.40;;;-5.82;96.78
68077;BME280;54866;53.458;14.540;2022-12-17T12:14:19;101813.80;;;-5.76;96.83
68077;BME280;54866;53.458;14.540;2022-12-17T12:17:18;101814.64;;;-5.82;96.81
68077;BME280;54866;53.458;14.540;2022-12-17T12:20:15;101809.13;;;-5.86;96.65
68077;BME280;54866;53.458;14.540;2022-12-17T12:23:14;101810.31;;;-5.86;96.91
68077;BME280;54866;53.458;14.540;2022-12-17T12:26:10;101806.90;;;-5.84;96.96
68077;BME280;54866;53.458;14.540;2022-12-17T12:29:03;101823.38;;;-5.83;97.06
68077;BME280;54866;53.458;14.540;2022-12-17T12:31:59;101825.95;;;-5.84;97.18
68077;BME280;54866;53.458;14.540;2022-12-17T12:34:52;101827.82;;;-5.88;96.83
68077;BME280;54866;53.458;14.540;2022-12-17T12:37:40;101829.48;;;-5.95;96.85
68077;BME280;54866;53.458;14.540;2022-12-17T12:40:43;101836.85;;;-5.98;96.94
68077;BME280;54866;53.458;14.540;2022-12-17T12:43:34;101841.48;;;-5.96;97.05
68077;BME280;54866;53.458;14.540;2022-12-17T12:46:27;101843.41;;;-5.91;97.39
68077;BME280;54866;53.458;14.540;2022-12-17T12:49:22;101842.41;;;-5.85;97.57
68077;BME280;54866;53.458;14.540;2022-12-17T12:52:16;101842.23;;;-5.87;97.35
68077;BME280;54866;53.458;14.540;2022-12-17T12:55:04;101844.41;;;-5.95;96.97
68077;BME280;54866;53.458;14.540;2022-12-17T12:57:59;101838.52;;;-6.03;97.14
68077;BME280;54866;53.458;14.540;2022-12-17T13:01:02;101837.87;;;-5.98;97.48
68077;BME280;54866;53.458;14.540;2022-12-17T13:03:54;101839.44;;;-5.96;97.35
68077;BME280;54866;53.458;14.540;2022-12-17T13:06:44;101843.88;;;-6.00;97.46
68077;BME280;54866;53.458;14.540;2022-12-17T13:09:29;101840.73;;;-6.06;97.24
68077;BME280;54866;53.458;14.540;2022-12-17T13:12:21;101838.09;;;-6.12;97.33
68077;BME280;54866;53.458;14.540;2022-12-17T13:14:55;101843.41;;;-6.14;97.32
68077;BME280;54866;53.458;14.540;2022-12-17T13:17:33;101853.01;;;-6.15;97.59
68077;BME280;54866;53.458;14.540;2022-12-17T13:20:23;101856.23;;;-6.20;97.92
68077;BME280;54866;53.458;14.540;2022-12-17T13:23:12;101859.08;;;-6.25;97.75
68077;BME280;54866;53.458;14.540;2022-12-17T13:25:43;101864.20;;;-6.27;98.26
68077;BME280;54866;53.458;14.540;2022-12-17T13:28:29;101867.98;;;-6.25;98.51
68077;BME280;54866;53.458;14.540;2022-12-17T13:31:03;101869.36;;;-6.26;98.67
68077;BME280;54866;53.458;14.540;2022-12-17T13:33:41;101869.67;;;-6.29;98.82
68077;BME280;54866;53.458;14.540;2022-12-17T13:36:19;101877.17;;;-6.34;98.62
68077;BME280;54866;53.458;14.540;2022-12-17T13:38:56;101879.20;;;-6.36;99.31
68077;BME280;54866;53.458;14.540;2022-12-17T13:41:31;101879.75;;;-6.34;99.42
68077;BME280;54866;53.458;14.540;2022-12-17T13:44:02;101885.43;;;-6.31;99.68
68077;BME280;54866;53.458;14.540;2022-12-17T13:46:43;101890.91;;;-6.31;99.74
68077;BME280;54866;53.458;14.540;2022-12-17T13:49:18;101897.56;;;-6.35;99.66
68077;BME280;54866;53.458;14.540;2022-12-17T13:51:49;101899.76;;;-6.40;99.32
68077;BME280;54866;53.458;14.540;2022-12-17T13:54:28;101901.41;;;-6.44;99.31
68077;BME280;54866;53.458;14.540;2022-12-17T13:57:07;101898.81;;;-6.46;99.60
68077;BME280;54866;53.458;14.540;2022-12-17T13:59:37;101905.69;;;-6.46;99.71
68077;BME280;54866;53.458;14.540;2022-12-17T14:02:20;101906.52;;;-6.46;99.73
68077;BME280;54866;53.458;14.540;2022-12-17T14:04:54;101911.17;;;-6.45;99.90
68077;BME280;54866;53.458;14.540;2022-12-17T14:07:25;101920.08;;;-6.45;99.89
68077;BME280;54866;53.458;14.540;2022-12-17T14:09:56;101926.08;;;-6.47;100.00
68077;BME280;54866;53.458;14.540;2022-12-17T14:12:27;101926.36;;;-6.53;99.73
68077;BME280;54866;53.458;14.540;2022-12-17T14:15:04;101928.17;;;-6.58;99.94
68077;BME280;54866;53.458;14.540;2022-12-17T14:17:39;101932.05;;;-6.62;99.97
68077;BME280;54866;53.458;14.540;2022-12-17T14:20:15;101935.61;;;-6.67;99.90
68077;BME280;54866;53.458;14.540;2022-12-17T14:22:47;101936.23;;;-6.72;99.99
68077;BME280;54866;53.458;14.540;2022-12-17T14:25:20;101939.02;;;-6.82;99.84
68077;BME280;54866;53.458;14.540;2022-12-17T14:27:58;101946.48;;;-6.87;99.85
68077;BME280;54866;53.458;14.540;2022-12-17T14:30:37;101952.91;;;-6.93;99.78